Time;durP1;ratioP1;P1;durP2;ratioP2;P2;SDS_P1;SDS_P2;PMS_P1;PMS_P2;Temp;Humidity;BMP_temperature;BMP_pressure;BME280_temperature;BME280_humidity;BME280_pressure;Samples;Min_cycle;Max_cycle;Signal;HPM_P1;HPM_P2
2023/12/12 00:00:45;;;;;;;5.45;2.53;;;4.90;99.90;;;;;;4985549;28;20042;-64
2023/12/12 00:03:11;;;;;;;6.60;3.33;;;4.90;99.90;;;;;;4986694;28;20533;-65
2023/12/12 00:05:37;;;;;;;5.25;2.58;;;4.90;99.90;;;;;;4985836;28;20073;-65
2023/12/12 00:08:04;;;;;;;6.75;4.03;;;5.00;99.90;;;;;;4985191;28;20539;-65
2023/12/12 00:10:30;;;;;;;6.47;3.20;;;5.00;99.90;;;;;;4985702;28;20095;-65
2023/12/12 00:12:57;;;;;;;7.65;3.33;;;5.00;99.90;;;;;;4988876;28;20479;-65
2023/12/12 00:15:23;;;;;;;5.45;3.58;;;4.90;99.90;;;;;;4988589;28;20046;-65
2023/12/12 00:17:49;;;;;;;8.65;3.67;;;4.90;99.90;;;;;;4989901;28;20367;-65
2023/12/12 00:20:15;;;;;;;8.65;3.40;;;5.10;99.90;;;;;;4987886;28;20050;-65
2023/12/12 00:22:42;;;;;;;7.05;3.90;;;5.10;99.90;;;;;;4988661;28;20058;-64
2023/12/12 00:25:08;;;;;;;6.43;3.08;;;5.00;99.90;;;;;;4988351;28;20474;-65
2023/12/12 00:27:34;;;;;;;5.90;2.80;;;5.00;99.90;;;;;;4988720;28;20057;-65
2023/12/12 00:30:01;;;;;;;6.03;3.33;;;5.10;99.90;;;;;;4987614;28;20168;-65
2023/12/12 00:32:27;;;;;;;7.75;3.03;;;5.30;99.90;;;;;;4988383;28;20218;-65
2023/12/12 00:34:53;;;;;;;6.88;3.40;;;5.10;99.90;;;;;;4988452;28;20058;-65
2023/12/12 00:37:20;;;;;;;10.77;4.50;;;5.10;99.90;;;;;;4972143;28;20047;-66
2023/12/12 00:39:46;;;;;;;6.40;3.33;;;5.30;99.90;;;;;;4987517;28;20054;-65
2023/12/12 00:42:13;;;;;;;7.45;4.22;;;5.40;99.90;;;;;;4989554;28;20053;-65
2023/12/12 00:44:39;;;;;;;7.35;3.70;;;5.40;99.90;;;;;;4988298;28;20065;-65
2023/12/12 00:47:06;;;;;;;8.80;3.58;;;5.20;99.90;;;;;;4971866;28;20050;-65
2023/12/12 00:49:32;;;;;;;7.35;3.63;;;5.40;99.90;;;;;;4987535;28;20554;-65
2023/12/12 00:51:58;;;;;;;7.90;3.70;;;5.40;99.90;;;;;;4987989;28;20046;-65
2023/12/12 00:54:24;;;;;;;5.28;3.35;;;5.40;99.90;;;;;;4988006;28;20057;-65
2023/12/12 00:56:51;;;;;;;6.80;3.40;;;5.40;99.90;;;;;;4988288;28;20050;-65
2023/12/12 00:59:17;;;;;;;7.47;3.30;;;5.30;99.90;;;;;;4987937;28;20050;-65
2023/12/12 01:01:44;;;;;;;4.55;3.05;;;5.30;99.90;;;;;;4987946;28;20046;-65
2023/12/12 01:04:10;;;;;;;6.30;3.20;;;5.60;99.90;;;;;;4987943;28;20081;-65
2023/12/12 01:06:36;;;;;;;8.02;3.25;;;5.60;99.90;;;;;;4987860;28;20437;-65
2023/12/12 01:09:03;;;;;;;4.97;3.20;;;5.60;99.90;;;;;;4987878;28;20356;-65
2023/12/12 01:11:29;;;;;;;5.88;3.67;;;5.40;99.90;;;;;;4987761;28;20054;-65
2023/12/12 01:13:55;;;;;;;5.50;3.33;;;5.40;99.90;;;;;;4989180;28;20401;-65
2023/12/12 01:16:22;;;;;;;10.73;3.88;;;5.60;99.90;;;;;;4987712;28;20061;-65
2023/12/12 01:18:48;;;;;;;9.40;3.78;;;5.50;99.90;;;;;;4988484;28;20141;-65
2023/12/12 01:21:14;;;;;;;8.35;4.18;;;5.60;99.90;;;;;;4987406;28;20070;-65
2023/12/12 01:23:52;;;;;;;9.85;3.50;;;5.60;99.90;;;;;;4987850;28;20051;-66
2023/12/12 01:26:20;;;;;;;10.68;4.35;;;5.60;99.90;;;;;;4987476;28;20062;-65
2023/12/12 01:28:47;;;;;;;8.20;5.10;;;5.40;99.90;;;;;;4987010;28;20395;-65
2023/12/12 01:31:14;;;;;;;8.90;4.82;;;5.60;99.90;;;;;;4987503;28;20482;-65
2023/12/12 01:33:41;;;;;;;11.82;4.63;;;5.40;99.90;;;;;;4987531;28;20088;-65
2023/12/12 01:36:08;;;;;;;8.07;4.35;;;5.50;99.90;;;;;;4987508;28;20056;-65
2023/12/12 01:38:35;;;;;;;9.30;5.20;;;5.50;99.90;;;;;;4987038;28;20149;-65
2023/12/12 01:41:02;;;;;;;8.55;4.82;;;5.60;99.90;;;;;;4987218;28;20052;-65
2023/12/12 01:43:30;;;;;;;8.05;5.07;;;5.70;99.90;;;;;;4987619;28;20050;-65
2023/12/12 01:46:01;;;;;;;10.63;5.82;;;5.70;99.90;;;;;;4987205;28;20061;-65
2023/12/12 01:48:29;;;;;;;13.75;5.95;;;5.40;99.90;;;;;;4988097;28;20054;-65
2023/12/12 01:50:56;;;;;;;9.55;5.75;;;5.60;99.90;;;;;;4986698;28;20065;-65
2023/12/12 01:53:32;;;;;;;12.00;6.03;;;5.50;99.90;;;;;;4987299;28;20049;-66
2023/12/12 01:56:03;;;;;;;12.55;6.20;;;5.70;99.90;;;;;;4988115;28;20058;-65
2023/12/12 01:58:31;;;;;;;13.23;6.68;;;5.60;99.90;;;;;;4986601;28;20042;-65
2023/12/12 02:00:58;;;;;;;15.48;6.03;;;5.60;99.90;;;;;;4987053;28;20058;-65
2023/12/12 02:03:25;;;;;;;12.48;6.40;;;5.90;99.90;;;;;;4986893;28;20050;-65
2023/12/12 02:05:56;;;;;;;13.43;7.10;;;5.60;99.90;;;;;;4987326;28;20050;-65
2023/12/12 02:08:25;;;;;;;14.88;6.78;;;6.00;99.90;;;;;;4986633;28;20058;-65
2023/12/12 02:10:51;;;;;;;12.48;6.03;;;5.70;99.90;;;;;;4986917;28;20054;-65
2023/12/12 02:13:18;;;;;;;13.45;7.00;;;5.80;99.90;;;;;;4986750;28;20053;-65
2023/12/12 02:15:44;;;;;;;14.75;6.82;;;5.80;99.90;;;;;;4987198;28;20419;-65
2023/12/12 02:18:12;;;;;;;12.60;7.00;;;5.80;99.90;;;;;;4986460;28;20125;-65
2023/12/12 02:20:38;;;;;;;12.88;6.57;;;6.00;99.90;;;;;;4986681;28;20335;-65
2023/12/12 02:23:06;;;;;;;14.18;7.25;;;5.90;99.90;;;;;;4986700;28;20146;-65
2023/12/12 02:25:32;;;;;;;13.13;6.78;;;6.20;99.90;;;;;;4986889;28;20058;-65
2023/12/12 02:27:59;;;;;;;17.80;6.88;;;6.20;99.90;;;;;;4986722;28;20471;-65
2023/12/12 02:30:26;;;;;;;13.52;7.00;;;6.20;99.90;;;;;;4986470;28;20069;-65
2023/12/12 02:32:52;;;;;;;13.63;6.63;;;6.00;99.90;;;;;;4986300;28;20050;-65
2023/12/12 02:35:19;;;;;;;13.15;6.22;;;6.30;99.90;;;;;;4986721;28;20050;-65
2023/12/12 02:37:45;;;;;;;15.50;7.28;;;5.90;99.90;;;;;;4987245;28;20492;-65
2023/12/12 02:40:11;;;;;;;14.93;8.40;;;6.20;99.90;;;;;;4966448;28;20049;-65
2023/12/12 02:42:43;;;;;;;11.85;6.75;;;6.10;99.90;;;;;;4966904;28;20054;-65
2023/12/12 02:45:10;;;;;;;11.05;6.32;;;6.10;99.90;;;;;;4967209;28;20050;-65
2023/12/12 02:47:36;;;;;;;14.05;7.50;;;6.10;99.90;;;;;;4968080;28;20134;-65
2023/12/12 02:50:02;;;;;;;12.57;7.20;;;6.10;99.90;;;;;;4970327;28;20046;-65
2023/12/12 02:52:29;;;;;;;11.82;6.80;;;6.40;99.90;;;;;;4987256;28;20050;-66
2023/12/12 02:54:55;;;;;;;14.63;6.78;;;6.40;99.90;;;;;;4986520;28;20057;-65
2023/12/12 02:57:23;;;;;;;17.83;7.25;;;6.30;99.90;;;;;;4986397;28;20053;-66
2023/12/12 02:59:49;;;;;;;17.42;7.22;;;6.30;99.90;;;;;;4985810;28;20084;-65
2023/12/12 03:02:16;;;;;;;19.00;8.15;;;6.20;99.90;;;;;;4986386;28;20054;-66
2023/12/12 03:04:43;;;;;;;14.20;7.13;;;6.40;99.90;;;;;;4986387;28;20051;-65
2023/12/12 03:07:10;;;;;;;14.20;7.35;;;6.10;99.90;;;;;;4986157;28;20061;-66
2023/12/12 03:09:36;;;;;;;15.75;7.65;;;6.30;99.90;;;;;;4985875;28;20085;-65
2023/12/12 03:12:02;;;;;;;18.90;7.70;;;6.30;99.90;;;;;;4985831;28;20474;-65
2023/12/12 03:14:29;;;;;;;17.45;7.15;;;6.10;99.90;;;;;;4986280;28;20062;-65
2023/12/12 03:16:56;;;;;;;16.60;8.40;;;6.40;99.90;;;;;;4986291;28;20427;-65
2023/12/12 03:19:23;;;;;;;18.02;8.40;;;6.40;99.90;;;;;;4986630;28;20061;-66
2023/12/12 03:21:50;;;;;;;14.55;7.65;;;6.20;99.90;;;;;;4985715;28;20065;-65
2023/12/12 03:24:17;;;;;;;17.30;7.57;;;6.50;99.90;;;;;;4970022;28;20050;-65
2023/12/12 03:26:43;;;;;;;17.88;7.35;;;6.40;99.90;;;;;;4985706;28;20057;-65
2023/12/12 03:29:10;;;;;;;17.95;8.23;;;6.20;99.90;;;;;;4969594;28;20471;-65
2023/12/12 03:31:36;;;;;;;15.98;7.35;;;6.40;99.90;;;;;;4985489;28;20050;-65
2023/12/12 03:34:03;;;;;;;15.15;7.32;;;6.30;99.90;;;;;;4985579;28;20051;-65
2023/12/12 03:36:29;;;;;;;16.40;7.65;;;6.30;99.90;;;;;;4985647;28;20092;-65
2023/12/12 03:38:55;;;;;;;15.48;7.38;;;6.30;99.90;;;;;;4985747;28;20046;-65
2023/12/12 03:41:23;;;;;;;20.35;8.55;;;6.30;99.90;;;;;;4985494;28;20046;-65
2023/12/12 03:43:50;;;;;;;15.77;7.85;;;6.30;99.90;;;;;;4986839;28;20442;-65
2023/12/12 03:46:18;;;;;;;16.27;7.63;;;6.50;99.90;;;;;;4987908;28;20050;-65
2023/12/12 03:48:45;;;;;;;17.40;7.70;;;6.40;99.90;;;;;;4989816;28;20061;-65
2023/12/12 03:51:11;;;;;;;17.98;8.00;;;6.30;99.90;;;;;;4988986;28;20482;-66
2023/12/12 03:53:39;;;;;;;14.98;6.93;;;6.50;99.90;;;;;;4973067;28;20141;-65
2023/12/12 03:56:06;;;;;;;18.27;7.68;;;6.40;99.90;;;;;;4989157;28;20058;-65
2023/12/12 03:58:33;;;;;;;17.00;7.78;;;6.40;99.90;;;;;;4989688;28;20046;-65
2023/12/12 04:00:59;;;;;;;17.80;7.40;;;6.50;99.90;;;;;;4989188;28;20050;-65
2023/12/12 04:03:26;;;;;;;14.57;7.15;;;6.40;99.90;;;;;;4989294;28;20062;-65
2023/12/12 04:05:52;;;;;;;17.38;7.82;;;6.30;99.90;;;;;;4989540;28;20361;-65
2023/12/12 04:08:19;;;;;;;17.08;7.85;;;6.30;99.90;;;;;;4972630;28;20051;-65
2023/12/12 04:10:45;;;;;;;16.60;7.93;;;6.60;99.90;;;;;;4988605;28;20062;-65
2023/12/12 04:13:11;;;;;;;15.60;7.68;;;6.60;99.90;;;;;;4989051;28;20047;-66
2023/12/12 04:15:38;;;;;;;14.75;8.35;;;6.60;99.90;;;;;;4989029;28;20466;-65
2023/12/12 04:18:04;;;;;;;15.32;7.18;;;6.60;99.90;;;;;;4988606;28;20057;-65
2023/12/12 04:20:30;;;;;;;15.73;8.00;;;6.70;99.90;;;;;;4988501;28;20042;-65
2023/12/12 04:22:57;;;;;;;15.65;7.72;;;6.40;99.90;;;;;;4988607;28;20050;-66
2023/12/12 04:25:23;;;;;;;18.63;7.70;;;6.70;99.90;;;;;;4988258;28;20479;-65
2023/12/12 04:27:49;;;;;;;13.93;7.20;;;6.40;99.90;;;;;;4989516;28;20072;-65
2023/12/12 04:30:16;;;;;;;15.30;7.55;;;6.50;99.90;;;;;;4988183;28;20061;-65
2023/12/12 04:32:42;;;;;;;20.80;8.63;;;6.50;99.90;;;;;;4988682;28;20050;-65
2023/12/12 04:35:10;;;;;;;17.63;8.65;;;6.50;99.90;;;;;;4988576;28;20050;-66
2023/12/12 04:37:37;;;;;;;15.65;8.00;;;6.80;99.90;;;;;;4988447;28;20050;-66
2023/12/12 04:40:04;;;;;;;18.13;8.35;;;6.60;99.90;;;;;;4987588;28;20042;-66
2023/12/12 04:42:30;;;;;;;15.70;8.40;;;6.80;99.90;;;;;;4988515;28;20285;-66
2023/12/12 04:44:56;;;;;;;18.45;8.88;;;6.50;99.90;;;;;;4970871;28;20062;-67
2023/12/12 04:47:23;;;;;;;16.83;9.35;;;6.60;99.90;;;;;;4986949;28;20081;-65
2023/12/12 04:49:51;;;;;;;19.40;9.77;;;6.80;99.90;;;;;;4969771;28;20054;-66
2023/12/12 04:52:17;;;;;;;20.52;9.95;;;6.60;99.90;;;;;;4987413;28;20046;-65
2023/12/12 04:54:43;;;;;;;18.65;10.85;;;6.50;99.90;;;;;;4971930;28;20046;-65
2023/12/12 04:57:09;;;;;;;19.58;10.38;;;6.90;99.90;;;;;;4988105;28;20139;-65
2023/12/12 04:59:36;;;;;;;23.63;11.40;;;6.80;99.90;;;;;;4971558;28;20357;-65
2023/12/12 05:02:02;;;;;;;21.48;11.23;;;6.90;99.90;;;;;;4971520;28;20413;-66
2023/12/12 05:04:28;;;;;;;19.88;9.90;;;6.70;99.90;;;;;;4987921;28;20144;-65
2023/12/12 05:06:55;;;;;;;23.92;11.35;;;6.70;99.90;;;;;;4971593;28;20578;-65
2023/12/12 05:09:21;;;;;;;22.70;11.43;;;6.80;99.90;;;;;;4987458;28;20050;-65
2023/12/12 05:11:48;;;;;;;22.85;12.82;;;6.80;99.90;;;;;;4987768;28;20058;-66
2023/12/12 05:14:14;;;;;;;21.70;12.57;;;6.80;99.90;;;;;;4987578;28;20064;-66
2023/12/12 05:16:40;;;;;;;25.95;13.77;;;6.80;99.90;;;;;;4988390;28;20049;-66
2023/12/12 05:19:07;;;;;;;22.42;12.38;;;6.60;99.90;;;;;;4988514;28;20149;-65
2023/12/12 05:21:33;;;;;;;21.17;12.65;;;6.60;99.90;;;;;;4967943;28;20336;-65
2023/12/12 05:24:00;;;;;;;26.20;13.40;;;6.90;99.90;;;;;;4968724;28;20055;-66
2023/12/12 05:26:27;;;;;;;23.55;13.18;;;6.60;99.90;;;;;;4968253;28;20066;-65
2023/12/12 05:28:53;;;;;;;26.88;13.77;;;6.50;99.90;;;;;;4967831;28;20054;-66
2023/12/12 05:31:19;;;;;;;28.20;14.80;;;6.90;99.90;;;;;;4980731;28;20516;-65
2023/12/12 05:33:46;;;;;;;24.05;13.70;;;6.90;99.90;;;;;;4971512;28;20058;-65
2023/12/12 05:36:13;;;;;;;23.95;14.38;;;6.90;99.90;;;;;;4987351;28;20050;-65
2023/12/12 05:38:39;;;;;;;27.02;13.93;;;6.70;99.90;;;;;;4987606;28;20484;-66
2023/12/12 05:41:06;;;;;;;22.27;13.73;;;7.00;99.90;;;;;;4988793;28;20065;-66
2023/12/12 05:43:32;;;;;;;24.92;13.85;;;6.90;99.90;;;;;;4978169;28;20058;-66
2023/12/12 05:45:59;;;;;;;20.60;12.43;;;6.80;99.90;;;;;;4975316;28;20046;-65
2023/12/12 05:48:25;;;;;;;23.27;13.05;;;7.00;99.90;;;;;;4975937;28;20054;-66
2023/12/12 05:50:52;;;;;;;21.95;13.02;;;6.90;99.90;;;;;;4971771;28;20385;-66
2023/12/12 05:53:18;;;;;;;22.13;12.88;;;6.70;99.90;;;;;;4967629;28;20062;-65
2023/12/12 05:55:44;;;;;;;19.38;13.05;;;6.90;99.90;;;;;;4979145;28;20042;-65
2023/12/12 05:58:11;;;;;;;21.38;12.65;;;6.50;99.90;;;;;;4983498;28;20129;-65
2023/12/12 06:00:39;;;;;;;22.50;13.70;;;6.90;99.90;;;;;;4981753;28;20413;-66
2023/12/12 06:03:06;;;;;;;20.58;12.98;;;6.70;99.90;;;;;;4977832;28;20050;-66
2023/12/12 06:05:32;;;;;;;19.38;12.02;;;6.80;99.90;;;;;;4987142;28;20054;-66
2023/12/12 06:07:58;;;;;;;21.48;12.63;;;6.80;99.90;;;;;;4985852;28;20212;-66
2023/12/12 06:10:25;;;;;;;21.42;12.70;;;6.70;99.90;;;;;;4986799;28;20481;-66
2023/12/12 06:12:51;;;;;;;20.33;12.98;;;6.40;99.90;;;;;;4975677;28;20047;-66
2023/12/12 06:15:17;;;;;;;21.58;12.70;;;6.80;99.90;;;;;;4967857;28;20053;-66
2023/12/12 06:17:44;;;;;;;16.35;11.20;;;6.50;99.90;;;;;;4960742;28;20050;-67
2023/12/12 06:20:10;;;;;;;20.15;11.85;;;6.50;99.90;;;;;;4963492;28;20137;-65
2023/12/12 06:22:36;;;;;;;23.90;12.93;;;6.50;99.90;;;;;;4983869;28;20049;-66
2023/12/12 06:25:03;;;;;;;20.45;12.23;;;6.40;99.90;;;;;;4977292;28;20073;-67
2023/12/12 06:27:29;;;;;;;21.00;11.65;;;6.40;99.90;;;;;;4987641;28;20443;-67
2023/12/12 06:29:56;;;;;;;16.48;11.68;;;6.40;99.90;;;;;;4985631;28;20054;-67
2023/12/12 06:32:22;;;;;;;20.23;12.13;;;6.30;99.90;;;;;;4977445;28;20479;-66
2023/12/12 06:34:48;;;;;;;19.95;12.38;;;6.50;99.90;;;;;;4967368;28;20073;-67
2023/12/12 06:37:15;;;;;;;18.10;11.55;;;6.40;99.90;;;;;;4967127;28;20047;-67
2023/12/12 06:39:41;;;;;;;20.70;10.82;;;6.30;99.90;;;;;;4966473;28;20047;-67
2023/12/12 06:42:07;;;;;;;18.95;12.57;;;6.20;99.90;;;;;;4984949;28;20480;-66
2023/12/12 06:44:34;;;;;;;20.45;12.52;;;6.10;99.90;;;;;;4985858;28;20391;-66
2023/12/12 06:47:00;;;;;;;16.73;12.38;;;6.00;99.90;;;;;;4985807;28;20134;-66
2023/12/12 06:49:26;;;;;;;19.08;12.02;;;6.30;99.90;;;;;;4986962;28;20054;-66
2023/12/12 06:51:53;;;;;;;18.90;11.88;;;6.00;99.90;;;;;;4985739;28;20083;-67
2023/12/12 06:54:19;;;;;;;20.55;12.38;;;6.10;99.90;;;;;;4986122;28;20051;-66
2023/12/12 06:56:46;;;;;;;17.33;11.82;;;6.00;99.90;;;;;;4986746;28;20054;-66
2023/12/12 06:59:12;;;;;;;17.48;12.25;;;6.00;99.90;;;;;;4970187;28;20051;-67
2023/12/12 07:01:38;;;;;;;19.95;12.40;;;5.70;99.90;;;;;;4970180;28;20042;-68
2023/12/12 07:04:05;;;;;;;17.48;11.48;;;6.10;99.90;;;;;;4986306;28;20154;-67
2023/12/12 07:06:31;;;;;;;18.35;11.98;;;6.00;99.90;;;;;;4986462;28;20051;-65
2023/12/12 07:08:57;;;;;;;19.10;12.95;;;5.90;99.90;;;;;;4985978;28;20427;-67
2023/12/12 07:11:24;;;;;;;21.95;12.65;;;5.80;99.90;;;;;;4986065;28;20061;-67
2023/12/12 07:13:51;;;;;;;22.55;13.88;;;5.50;99.90;;;;;;4986270;28;20061;-66
2023/12/12 07:16:18;;;;;;;18.58;13.57;;;5.50;99.90;;;;;;4986734;28;20058;-65
2023/12/12 07:18:44;;;;;;;23.80;13.25;;;5.80;99.90;;;;;;4970164;28;20429;-66
2023/12/12 07:21:11;;;;;;;20.60;13.15;;;5.70;99.90;;;;;;4989745;28;20058;-67
2023/12/12 07:23:37;;;;;;;21.08;13.63;;;5.40;99.90;;;;;;4989972;28;20069;-66
2023/12/12 07:26:04;;;;;;;21.10;13.60;;;5.50;99.90;;;;;;4973886;28;20499;-65
2023/12/12 07:28:30;;;;;;;25.90;13.93;;;5.60;99.90;;;;;;4989521;28;20046;-65
2023/12/12 07:30:56;;;;;;;22.95;14.05;;;5.70;99.90;;;;;;4989496;28;20438;-66
2023/12/12 07:33:24;;;;;;;23.33;13.63;;;5.60;99.90;;;;;;4989512;28;20042;-65
2023/12/12 07:35:50;;;;;;;22.90;13.20;;;5.40;99.90;;;;;;4989821;28;20061;-66
2023/12/12 07:38:17;;;;;;;21.65;14.18;;;5.40;99.90;;;;;;4989005;28;20061;-66
2023/12/12 07:40:43;;;;;;;21.25;12.93;;;5.20;99.90;;;;;;4989258;28;20050;-66
2023/12/12 07:43:10;;;;;;;20.98;13.52;;;5.20;99.90;;;;;;4989700;28;20061;-66
2023/12/12 07:45:36;;;;;;;20.35;13.18;;;5.20;99.90;;;;;;4989045;28;20062;-66
2023/12/12 07:48:03;;;;;;;23.15;13.73;;;5.50;99.90;;;;;;4988768;28;20475;-65
2023/12/12 07:50:29;;;;;;;20.33;13.90;;;5.20;99.90;;;;;;4989281;28;20064;-66
2023/12/12 07:52:55;;;;;;;23.50;14.18;;;5.10;99.90;;;;;;4972681;28;20050;-66
2023/12/12 07:55:22;;;;;;;22.52;13.75;;;5.30;99.90;;;;;;4989035;28;20435;-66
2023/12/12 07:57:48;;;;;;;20.10;13.48;;;5.00;99.90;;;;;;4988615;28;20050;-66
2023/12/12 08:00:15;;;;;;;22.50;13.98;;;5.20;99.90;;;;;;4972548;28;20054;-66
2023/12/12 08:02:42;;;;;;;20.73;14.10;;;4.90;99.90;;;;;;4989313;28;20042;-66
2023/12/12 08:05:09;;;;;;;22.50;14.32;;;4.90;99.90;;;;;;4973216;28;20074;-67
2023/12/12 08:07:35;;;;;;;22.20;14.27;;;4.80;99.90;;;;;;4988364;28;20054;-66
2023/12/12 08:10:01;;;;;;;22.45;14.35;;;5.10;99.90;;;;;;4988835;28;20123;-66
2023/12/12 08:12:28;;;;;;;23.05;14.48;;;5.20;99.90;;;;;;4988770;28;20093;-66
2023/12/12 08:14:55;;;;;;;23.42;14.10;;;5.10;99.90;;;;;;4988925;28;20065;-67
2023/12/12 08:17:21;;;;;;;26.25;15.48;;;4.80;99.90;;;;;;4989188;28;20483;-67
2023/12/12 08:19:47;;;;;;;27.20;16.23;;;4.90;99.90;;;;;;4972140;28;20042;-66
2023/12/12 08:22:14;;;;;;;23.42;14.95;;;5.00;99.90;;;;;;4988821;28;20042;-67
2023/12/12 08:24:40;;;;;;;27.08;16.27;;;5.00;99.90;;;;;;4973054;28;20042;-66
2023/12/12 08:27:07;;;;;;;24.75;14.95;;;5.00;99.90;;;;;;4973058;28;20065;-66
2023/12/12 08:29:33;;;;;;;24.30;15.63;;;4.70;99.90;;;;;;4988577;28;20058;-66
2023/12/12 08:32:00;;;;;;;24.83;16.83;;;4.80;99.90;;;;;;4987556;28;20134;-66
2023/12/12 08:34:27;;;;;;;27.90;15.80;;;4.70;99.90;;;;;;4972277;28;20087;-65
2023/12/12 08:36:53;;;;;;;26.23;17.05;;;4.80;99.90;;;;;;4988243;28;20142;-65
2023/12/12 08:39:19;;;;;;;26.90;17.55;;;5.00;99.90;;;;;;4988194;28;20382;-66
2023/12/12 08:41:46;;;;;;;24.83;16.98;;;5.00;99.90;;;;;;4988051;28;20417;-66
2023/12/12 08:44:12;;;;;;;26.20;17.75;;;5.00;99.90;;;;;;4988922;28;20046;-65
2023/12/12 08:46:43;;;;;;;26.85;17.52;;;5.10;99.90;;;;;;4988352;28;20054;-66
2023/12/12 08:49:10;;;;;;;28.55;17.67;;;5.20;99.90;;;;;;4988360;28;20355;-65
2023/12/12 08:51:36;;;;;;;29.35;17.52;;;5.00;99.90;;;;;;4987997;28;20059;-66
2023/12/12 08:54:02;;;;;;;27.23;17.23;;;5.20;99.90;;;;;;4972241;28;20363;-66
2023/12/12 08:56:29;;;;;;;27.95;18.08;;;5.00;99.90;;;;;;4988535;28;20054;-65
2023/12/12 08:58:55;;;;;;;29.60;17.25;;;5.20;99.90;;;;;;4971632;28;20046;-66
2023/12/12 09:01:22;;;;;;;28.17;17.80;;;5.40;99.90;;;;;;4988010;28;20274;-66
2023/12/12 09:03:48;;;;;;;29.83;18.25;;;5.30;99.90;;;;;;4972418;28;20423;-66
2023/12/12 09:06:15;;;;;;;30.77;16.85;;;5.30;99.90;;;;;;4988295;28;20061;-66
2023/12/12 09:08:42;;;;;;;25.25;17.33;;;5.50;99.90;;;;;;4987980;28;20441;-65
2023/12/12 09:11:09;;;;;;;27.80;16.85;;;5.30;99.90;;;;;;4988294;28;20042;-66
2023/12/12 09:13:36;;;;;;;29.15;17.33;;;5.10;99.90;;;;;;4987752;28;20061;-65
2023/12/12 09:16:03;;;;;;;26.85;16.50;;;5.20;99.90;;;;;;4987684;28;20062;-66
2023/12/12 09:18:29;;;;;;;27.30;16.38;;;5.50;99.90;;;;;;4987702;28;20069;-66
2023/12/12 09:20:55;;;;;;;25.75;16.98;;;5.50;99.90;;;;;;4971609;28;20054;-66
2023/12/12 09:23:22;;;;;;;23.75;15.50;;;5.20;99.90;;;;;;4987960;28;20355;-66
2023/12/12 09:25:49;;;;;;;23.77;14.85;;;5.20;99.90;;;;;;4987578;28;20054;-67
2023/12/12 09:28:16;;;;;;;26.65;15.45;;;5.50;99.90;;;;;;4971124;28;20069;-66
2023/12/12 09:30:42;;;;;;;23.33;15.43;;;5.30;99.90;;;;;;4987797;28;20051;-66
2023/12/12 09:33:08;;;;;;;25.33;16.02;;;5.40;99.90;;;;;;4988011;28;20340;-66
2023/12/12 09:35:36;;;;;;;23.15;14.98;;;5.70;99.90;;;;;;4987453;28;20061;-65
2023/12/12 09:38:03;;;;;;;24.80;15.90;;;5.50;99.90;;;;;;4986970;28;20062;-66
2023/12/12 09:40:29;;;;;;;24.88;16.35;;;5.70;99.90;;;;;;4971312;28;20057;-65
2023/12/12 09:42:57;;;;;;;22.05;14.68;;;5.60;99.90;;;;;;4987760;28;20469;-65
2023/12/12 09:45:25;;;;;;;25.23;15.35;;;5.50;99.90;;;;;;4971183;28;20058;-67
2023/12/12 09:47:52;;;;;;;24.77;16.75;;;5.50;99.90;;;;;;4970833;28;20062;-65
2023/12/12 09:50:19;;;;;;;23.50;15.98;;;5.90;99.90;;;;;;4987197;28;20054;-66
2023/12/12 09:52:47;;;;;;;23.45;15.10;;;5.60;99.90;;;;;;4987135;28;20054;-65
2023/12/12 09:55:14;;;;;;;21.25;14.27;;;5.70;99.90;;;;;;4987469;28;20086;-66
2023/12/12 09:57:40;;;;;;;23.40;16.23;;;5.60;99.90;;;;;;4987281;28;20050;-66
2023/12/12 10:00:08;;;;;;;22.38;13.80;;;6.00;99.90;;;;;;4986922;28;20062;-66
2023/12/12 10:02:36;;;;;;;22.80;14.70;;;6.00;99.90;;;;;;4967577;28;20059;-68
2023/12/12 10:05:04;;;;;;;22.33;14.35;;;5.80;99.90;;;;;;4967854;28;20062;-66
2023/12/12 10:07:33;;;;;;;22.83;14.07;;;5.80;99.90;;;;;;4968183;28;20085;-65
2023/12/12 10:10:04;;;;;;;22.45;14.15;;;6.00;99.90;;;;;;4967772;28;20054;-66
2023/12/12 10:12:30;;;;;;;22.95;14.73;;;5.90;99.90;;;;;;4986578;28;20332;-66
2023/12/12 10:14:57;;;;;;;26.17;14.35;;;6.10;99.90;;;;;;4971100;28;20042;-67
2023/12/12 10:17:25;;;;;;;24.65;15.55;;;6.30;99.90;;;;;;4986691;28;20054;-66
2023/12/12 10:19:59;;;;;;;24.50;14.82;;;6.20;99.90;;;;;;4987223;28;20058;-66
2023/12/12 10:22:30;;;;;;;20.95;13.73;;;6.50;99.90;;;;;;4987006;28;20306;-66
2023/12/12 10:25:14;;;;;;;24.52;14.20;;;6.40;99.90;;;;;;4987266;28;20065;-66
2023/12/12 10:27:42;;;;;;;24.63;15.35;;;6.30;99.90;;;;;;4970638;28;20057;-67
2023/12/12 10:30:12;;;;;;;23.88;15.18;;;6.70;99.90;;;;;;4987234;28;20341;-67
2023/12/12 10:32:38;;;;;;;25.45;15.48;;;6.70;99.90;;;;;;4967458;28;20073;-67
2023/12/12 10:35:05;;;;;;;24.60;14.32;;;6.90;99.90;;;;;;4967518;28;20047;-66
2023/12/12 10:37:31;;;;;;;25.80;15.60;;;6.60;99.90;;;;;;4966962;28;20047;-65
2023/12/12 10:40:15;;;;;;;22.85;13.18;;;6.90;99.90;;;;;;4967450;28;20100;-67
2023/12/12 10:42:42;;;;;;;25.85;15.20;;;6.70;99.90;;;;;;4951326;28;20047;-66
2023/12/12 10:45:14;;;;;;;22.05;13.63;;;6.80;99.90;;;;;;4967220;28;20069;-66
2023/12/12 10:47:44;;;;;;;24.52;14.80;;;7.20;99.90;;;;;;4967061;28;20059;-66
2023/12/12 10:50:13;;;;;;;25.30;14.40;;;7.10;99.90;;;;;;4952546;28;20146;-66
2023/12/12 10:52:41;;;;;;;23.35;13.77;;;7.00;99.90;;;;;;4986069;28;20058;-67
2023/12/12 10:55:12;;;;;;;24.75;14.75;;;7.30;99.90;;;;;;4985946;28;20600;-66
2023/12/12 10:57:42;;;;;;;24.48;14.60;;;7.20;99.90;;;;;;4986088;28;20065;-66
2023/12/12 11:00:15;;;;;;;23.50;13.73;;;7.30;99.90;;;;;;4986632;28;20058;-65
2023/12/12 11:02:44;;;;;;;22.45;13.00;;;6.90;99.90;;;;;;4950917;28;20046;-66
2023/12/12 11:05:12;;;;;;;22.65;14.00;;;6.90;99.90;;;;;;4967688;28;20065;-66
2023/12/12 11:07:40;;;;;;;22.35;14.30;;;7.10;99.90;;;;;;4966571;28;20054;-66
2023/12/12 11:10:09;;;;;;;25.33;14.63;;;7.20;99.90;;;;;;4967032;28;20063;-66
2023/12/12 11:12:43;;;;;;;28.13;14.35;;;7.30;99.90;;;;;;4986641;28;20050;-65
2023/12/12 11:15:12;;;;;;;21.42;13.40;;;7.30;99.90;;;;;;4986439;28;20145;-65
2023/12/12 11:17:39;;;;;;;23.33;14.10;;;7.30;99.90;;;;;;4985820;28;20051;-65
2023/12/12 11:20:13;;;;;;;23.90;13.43;;;7.20;99.90;;;;;;4986221;28;20077;-66
2023/12/12 11:22:50;;;;;;;26.00;12.45;;;7.00;99.90;;;;;;4950721;28;20134;-66
2023/12/12 11:25:21;;;;;;;21.58;13.13;;;7.00;99.90;;;;;;4967049;28;20352;-65
2023/12/12 11:27:52;;;;;;;19.40;11.23;;;7.20;99.90;;;;;;4966446;28;20146;-65
2023/12/12 11:30:20;;;;;;;19.63;12.90;;;6.90;99.90;;;;;;4968622;28;20051;-65
2023/12/12 11:32:47;;;;;;;26.25;13.40;;;7.20;99.90;;;;;;4986379;28;20053;-65
2023/12/12 11:35:28;;;;;;;26.33;13.70;;;7.00;99.90;;;;;;4986656;28;20065;-66
2023/12/12 11:38:02;;;;;;;28.55;14.15;;;7.40;99.90;;;;;;4969578;28;20069;-66
2023/12/12 11:40:30;;;;;;;25.27;14.30;;;7.20;99.90;;;;;;4970067;28;20054;-65
2023/12/12 11:42:59;;;;;;;30.38;16.83;;;7.20;99.90;;;;;;4970159;28;20055;-65
2023/12/12 11:45:29;;;;;;;27.83;15.68;;;7.30;99.90;;;;;;4985810;28;20058;-65
2023/12/12 11:47:58;;;;;;;33.60;16.30;;;7.30;99.90;;;;;;4986134;28;20054;-65
2023/12/12 11:50:25;;;;;;;30.50;15.23;;;7.20;99.90;;;;;;4969810;28;20062;-65
2023/12/12 11:52:51;;;;;;;30.05;15.60;;;7.40;99.90;;;;;;4985852;28;20501;-66
2023/12/12 11:55:19;;;;;;;32.58;15.35;;;7.30;99.90;;;;;;4986231;28;20061;-66
2023/12/12 11:57:46;;;;;;;32.75;14.77;;;7.70;99.90;;;;;;4985449;28;20469;-66
2023/12/12 12:00:14;;;;;;;28.90;15.13;;;7.50;99.90;;;;;;4969639;28;20047;-65
2023/12/12 12:02:41;;;;;;;27.63;14.45;;;7.80;99.90;;;;;;5051077;28;20382;-66
2023/12/12 12:05:09;;;;;;;32.17;15.00;;;7.70;99.90;;;;;;4966553;28;20120;-65
2023/12/12 12:07:38;;;;;;;31.98;15.10;;;7.30;99.90;;;;;;4968669;28;20066;-65
2023/12/12 12:10:05;;;;;;;35.55;15.38;;;7.80;99.90;;;;;;4969349;28;20059;-66
2023/12/12 12:12:32;;;;;;;34.58;15.48;;;7.60;99.90;;;;;;4989090;28;20062;-65
2023/12/12 12:15:06;;;;;;;31.02;15.90;;;7.80;99.90;;;;;;4972690;28;20054;-66
2023/12/12 12:17:34;;;;;;;32.80;14.80;;;7.50;99.90;;;;;;4988660;28;20058;-65
2023/12/12 12:20:00;;;;;;;36.40;15.88;;;7.90;99.90;;;;;;4988977;28;20065;-65
2023/12/12 12:22:26;;;;;;;31.17;15.25;;;7.90;99.90;;;;;;4969199;28;20054;-65
2023/12/12 12:24:53;;;;;;;27.30;14.10;;;7.90;99.90;;;;;;4969551;28;20062;-65
2023/12/12 12:27:19;;;;;;;32.00;16.23;;;7.60;99.90;;;;;;4952775;28;20986;-67
2023/12/12 12:29:59;;;;;;;33.85;15.30;;;7.60;99.90;;;;;;4969090;28;20061;-67
2023/12/12 12:32:26;;;;;;;39.22;15.57;;;7.80;99.90;;;;;;4987828;28;20054;-66
2023/12/12 12:35:08;;;;;;;31.67;15.95;;;7.60;99.90;;;;;;4988313;28;20122;-66
2023/12/12 12:37:36;;;;;;;31.33;15.75;;;7.70;99.90;;;;;;4972014;28;20053;-65
2023/12/12 12:40:04;;;;;;;28.90;15.70;;;8.10;99.90;;;;;;4988358;28;20050;-65
2023/12/12 12:42:31;;;;;;;35.58;16.25;;;7.90;99.90;;;;;;4988366;28;20490;-65